createdAt,value
2023-04-21T00:01:56.373Z,51.50
2023-04-21T00:04:25.045Z,48.20
2023-04-21T00:06:54.651Z,52.00
2023-04-21T00:09:23.050Z,50.30
2023-04-21T00:11:51.259Z,51.70
2023-04-21T00:14:19.428Z,52.60
2023-04-21T00:16:52.484Z,52.50
2023-04-21T00:19:23.849Z,52.00
2023-04-21T00:21:52.015Z,50.60
2023-04-21T00:24:20.151Z,51.00
2023-04-21T00:26:48.251Z,51.20
2023-04-21T00:29:16.655Z,53.30
2023-04-21T00:31:45.082Z,53.20
2023-04-21T00:34:13.302Z,52.80
2023-04-21T00:36:42.854Z,52.60
2023-04-21T00:39:11.115Z,54.60
2023-04-21T00:41:40.064Z,53.70
2023-04-21T00:44:09.540Z,52.10
2023-04-21T00:46:38.604Z,53.30
2023-04-21T00:49:08.636Z,52.80
2023-04-21T00:51:38.485Z,55.00
2023-04-21T00:54:08.977Z,52.90
2023-04-21T00:56:37.617Z,53.30
2023-04-21T00:59:05.993Z,54.20
2023-04-21T01:01:36.566Z,55.30
2023-04-21T01:04:06.148Z,51.70
2023-04-21T01:06:35.202Z,54.80
2023-04-21T01:09:04.767Z,55.40
2023-04-21T01:11:34.515Z,54.70
2023-04-21T01:14:02.672Z,53.80
2023-04-21T01:16:32.818Z,53.30
2023-04-21T01:19:01.872Z,52.00
2023-04-21T01:21:32.084Z,55.80
2023-04-21T01:24:01.603Z,55.10
2023-04-21T01:26:29.764Z,53.80
2023-04-21T01:28:58.453Z,53.90
2023-04-21T01:31:27.395Z,53.20
2023-04-21T01:33:55.639Z,50.60
2023-04-21T01:36:23.882Z,52.80
2023-04-21T01:38:52.092Z,53.90
2023-04-21T01:41:21.666Z,54.00
2023-04-21T01:43:49.904Z,53.90
2023-04-21T01:46:20.932Z,58.40
2023-04-21T01:48:49.130Z,54.60
2023-04-21T01:51:17.301Z,56.10
2023-04-21T01:53:45.465Z,57.50
2023-04-21T01:56:15.495Z,54.90
2023-04-21T01:58:45.034Z,55.50
2023-04-21T02:01:13.248Z,56.20
2023-04-21T02:03:41.956Z,54.30
2023-04-21T02:06:10.494Z,56.00
2023-04-21T02:08:38.698Z,56.30
2023-04-21T02:11:06.902Z,55.60
2023-04-21T02:13:35.054Z,55.60
2023-04-21T02:16:13.548Z,54.10
2023-04-21T02:18:42.506Z,57.70
2023-04-21T02:21:10.695Z,55.00
2023-04-21T02:23:38.849Z,55.50
2023-04-21T02:26:07.277Z,54.00
2023-04-21T02:28:35.474Z,55.40
2023-04-21T02:31:05.136Z,55.20
2023-04-21T02:33:33.313Z,53.20
2023-04-21T02:36:01.461Z,56.20
2023-04-21T02:38:30.329Z,53.30
2023-04-21T02:40:58.592Z,54.30
2023-04-21T02:43:26.793Z,56.00
2023-04-21T02:45:55.096Z,52.20
2023-04-21T02:48:24.652Z,55.60
2023-04-21T02:50:53.761Z,59.70
2023-04-21T02:53:22.055Z,53.20
2023-04-21T02:55:50.207Z,56.60
2023-04-21T02:58:18.452Z,61.00
2023-04-21T03:00:46.707Z,59.10
2023-04-21T03:03:16.968Z,58.80
2023-04-21T03:05:46.724Z,55.50
2023-04-21T03:08:14.925Z,54.40
2023-04-21T03:10:43.272Z,57.90
2023-04-21T03:13:11.414Z,56.40
2023-04-21T03:15:39.633Z,56.40
2023-04-21T03:18:07.873Z,56.10
2023-04-21T03:20:36.166Z,57.60
2023-04-21T03:23:05.751Z,57.40
2023-04-21T03:25:34.022Z,59.50
2023-04-21T03:28:02.333Z,57.00
2023-04-21T03:30:30.621Z,57.50
2023-04-21T03:32:59.513Z,57.60
2023-04-21T03:35:27.875Z,58.30
2023-04-21T03:37:56.043Z,57.70
2023-04-21T03:40:25.825Z,54.60
2023-04-21T03:42:53.988Z,57.20
2023-04-21T03:45:22.766Z,56.60
2023-04-21T03:47:54.753Z,55.20
2023-04-21T03:50:23.499Z,53.20
2023-04-21T03:52:51.655Z,52.30
2023-04-21T03:55:20.080Z,58.00
2023-04-21T03:57:49.647Z,56.60
2023-04-21T04:00:17.956Z,56.80
2023-04-21T04:02:46.340Z,56.90
2023-04-21T04:05:14.885Z,57.90
2023-04-21T04:07:43.081Z,54.00
2023-04-21T04:10:11.584Z,56.00
2023-04-21T04:12:39.760Z,56.80
2023-04-21T04:15:10.218Z,53.70
2023-04-21T04:17:38.443Z,56.00
2023-04-21T04:20:08.410Z,56.70
2023-04-21T04:22:37.029Z,58.30
2023-04-21T04:25:05.524Z,59.30
2023-04-21T04:27:34.358Z,55.20
2023-04-21T04:30:03.280Z,57.00
2023-04-21T04:32:34.125Z,53.20
2023-04-21T04:35:02.556Z,57.70
2023-04-21T04:37:31.790Z,60.10
2023-04-21T04:39:59.975Z,60.50
2023-04-21T04:42:29.050Z,58.20
2023-04-21T04:44:57.587Z,56.80
2023-04-21T04:47:25.874Z,56.60
2023-04-21T04:49:55.474Z,57.80
2023-04-21T04:52:23.669Z,55.60
2023-04-21T04:54:51.811Z,55.10
2023-04-21T04:57:19.947Z,60.00
2023-04-21T04:59:48.132Z,62.30
2023-04-21T05:02:16.459Z,57.30
2023-04-21T05:04:44.842Z,57.00
2023-04-21T05:07:14.558Z,53.20
2023-04-21T05:09:42.774Z,58.00
2023-04-21T05:12:11.281Z,57.80
2023-04-21T05:14:39.427Z,57.80
2023-04-21T05:17:07.708Z,56.00
2023-04-21T05:19:37.451Z,53.30
2023-04-21T05:22:06.576Z,56.10
2023-04-21T05:24:36.459Z,53.00
2023-04-21T05:27:04.756Z,54.70
2023-04-21T05:29:34.260Z,53.30
2023-04-21T05:32:02.611Z,50.60
2023-04-21T05:34:30.820Z,51.50
2023-04-21T05:36:59.033Z,54.70
2023-04-21T05:39:29.087Z,54.70
2023-04-21T05:41:58.952Z,53.10
2023-04-21T05:44:27.117Z,47.50
2023-04-21T05:46:55.360Z,52.10
2023-04-21T05:49:23.553Z,52.00
2023-04-21T05:51:51.686Z,50.70
2023-04-21T05:54:20.184Z,51.80
2023-04-21T05:56:48.619Z,54.00
2023-04-21T05:59:18.198Z,51.00
2023-04-21T06:01:46.368Z,49.70
2023-04-21T06:04:14.820Z,52.00
2023-04-21T06:06:44.358Z,50.70
2023-04-21T06:09:15.669Z,52.80
2023-04-21T06:11:43.864Z,51.50
2023-04-21T06:14:12.045Z,51.80
2023-04-21T06:16:41.620Z,50.50
2023-04-21T06:19:09.881Z,52.10
2023-04-21T06:21:38.079Z,53.00
2023-04-21T06:24:06.679Z,52.00
2023-04-21T06:26:34.821Z,51.10
2023-04-21T06:29:02.996Z,54.30
2023-04-21T06:31:31.170Z,51.20
2023-04-21T06:34:00.784Z,52.10
2023-04-21T06:36:28.949Z,46.60
2023-04-21T06:38:57.161Z,50.60
2023-04-21T06:41:25.521Z,46.00
2023-04-21T06:43:53.798Z,51.00
2023-04-21T06:46:22.065Z,53.00
2023-04-21T06:48:50.326Z,49.30
2023-04-21T06:51:19.964Z,51.50
2023-04-21T06:53:48.138Z,52.50
2023-04-21T06:56:16.318Z,52.00
2023-04-21T06:58:45.886Z,53.30
2023-04-21T07:01:14.175Z,53.40
2023-04-21T07:03:42.414Z,52.90
2023-04-21T07:06:10.939Z,48.40
2023-04-21T07:08:41.264Z,50.90
2023-04-21T07:11:09.545Z,48.90
2023-04-21T07:13:37.791Z,47.60
2023-04-21T07:16:06.490Z,49.40
2023-04-21T07:18:34.782Z,47.80
2023-04-21T07:21:03.042Z,50.40
2023-04-21T07:23:31.242Z,49.60
2023-04-21T07:26:00.903Z,51.50
2023-04-21T07:28:29.101Z,50.30
2023-04-21T07:30:57.309Z,48.40
2023-04-21T07:33:25.628Z,50.10
2023-04-21T07:35:53.772Z,45.50
2023-04-21T07:38:21.942Z,47.00
2023-04-21T07:40:50.104Z,46.30
2023-04-21T07:43:20.156Z,44.10
2023-04-21T07:45:48.385Z,45.40
2023-04-21T07:48:16.651Z,44.80
2023-04-21T07:50:44.965Z,44.00
2023-04-21T07:53:13.358Z,43.70
2023-04-21T07:55:41.730Z,44.80
2023-04-21T07:58:10.480Z,41.80
2023-04-21T08:00:40.110Z,42.20
2023-04-21T08:03:08.633Z,42.50
2023-04-21T08:05:40.987Z,43.60
2023-04-21T08:08:10.569Z,44.50
2023-04-21T08:10:38.814Z,42.50
2023-04-21T08:13:07.097Z,39.70
2023-04-21T08:15:35.792Z,36.30
2023-04-21T08:18:05.801Z,39.60
2023-04-21T08:20:34.426Z,38.30
2023-04-21T08:23:02.719Z,38.00
2023-04-21T08:25:31.075Z,37.50
2023-04-21T08:27:59.356Z,33.80
2023-04-21T08:30:28.461Z,36.00
2023-04-21T08:32:56.732Z,35.50
2023-04-21T08:35:26.373Z,33.90
2023-04-21T08:37:54.644Z,34.60
2023-04-21T08:40:23.959Z,33.40
2023-04-21T08:42:52.212Z,33.20
2023-04-21T08:45:20.716Z,29.90
2023-04-21T08:47:50.562Z,28.10
2023-04-21T08:50:19.174Z,25.30
2023-04-21T08:52:48.801Z,26.00
2023-04-21T08:55:17.633Z,27.40
2023-04-21T08:57:45.933Z,27.60
2023-04-21T09:00:15.179Z,27.90
2023-04-21T09:03:01.345Z,29.70
2023-04-21T09:05:31.917Z,27.30
2023-04-21T09:08:11.533Z,26.70
2023-04-21T09:10:46.365Z,26.20
2023-04-21T09:13:15.051Z,25.90
2023-04-21T09:15:44.474Z,25.40
2023-04-21T09:18:15.387Z,26.60
2023-04-21T09:20:44.475Z,26.40
2023-04-21T09:23:14.231Z,26.20
2023-04-21T09:25:45.330Z,28.50
2023-04-21T09:28:15.510Z,28.00
2023-04-21T09:30:44.554Z,27.10
2023-04-21T09:33:27.863Z,28.20
2023-04-21T09:36:03.345Z,27.50
2023-04-21T09:38:34.323Z,25.20
2023-04-21T09:41:02.650Z,26.80
2023-04-21T09:43:32.009Z,26.10
2023-04-21T09:46:01.573Z,26.00
2023-04-21T09:48:34.684Z,26.40
2023-04-21T09:51:25.471Z,26.00
2023-04-21T09:53:59.535Z,27.20
2023-04-21T09:56:31.243Z,26.10
2023-04-21T09:59:02.767Z,26.50
2023-04-21T10:01:35.548Z,25.60
2023-04-21T10:04:04.531Z,25.30
2023-04-21T10:06:33.611Z,23.80
2023-04-21T10:09:05.358Z,24.50
2023-04-21T10:11:35.181Z,23.90
2023-04-21T10:14:03.953Z,24.50
2023-04-21T10:16:32.152Z,23.50
2023-04-21T10:19:00.507Z,24.00
2023-04-21T10:21:29.632Z,25.10
2023-04-21T10:23:59.256Z,25.40
2023-04-21T10:26:35.920Z,23.90
2023-04-21T10:29:06.923Z,24.00
2023-04-21T10:31:36.219Z,23.90
2023-04-21T10:34:29.975Z,22.20
2023-04-21T10:37:15.542Z,22.60
2023-04-21T10:39:53.283Z,23.50
2023-04-21T10:42:28.518Z,23.80
2023-04-21T10:45:08.450Z,23.50
2023-04-21T10:47:46.147Z,23.00
2023-04-21T10:50:20.402Z,23.80
2023-04-21T10:52:54.923Z,22.70
2023-04-21T10:55:23.975Z,23.50
2023-04-21T10:57:53.652Z,22.20
2023-04-21T11:00:23.860Z,22.80
2023-04-21T11:03:00.161Z,23.20
2023-04-21T11:05:30.572Z,23.40
2023-04-21T11:08:07.006Z,21.90
2023-04-21T11:10:51.034Z,24.00
2023-04-21T11:13:22.526Z,23.60
2023-04-21T11:16:06.643Z,23.90
2023-04-21T11:18:44.634Z,24.10
2023-04-21T11:21:18.164Z,24.70
2023-04-21T11:23:55.016Z,25.00
2023-04-21T11:26:53.769Z,24.40
2023-04-21T11:29:23.958Z,24.00
2023-04-21T11:31:54.088Z,23.50
2023-04-21T11:34:25.086Z,23.30
2023-04-21T11:36:55.535Z,24.90
2023-04-21T11:39:23.792Z,25.10
2023-04-21T11:41:53.450Z,26.30
2023-04-21T11:44:41.879Z,25.30
2023-04-21T11:47:17.266Z,24.80
2023-04-21T11:49:47.207Z,24.90
2023-04-21T11:52:23.365Z,23.20
2023-04-21T11:54:58.010Z,25.50
2023-04-21T11:57:27.490Z,24.30
2023-04-21T12:00:00.620Z,23.40
2023-04-21T12:02:31.022Z,24.80
2023-04-21T12:05:04.380Z,23.60
2023-04-21T12:07:33.540Z,24.90
2023-04-21T12:10:03.034Z,25.10
2023-04-21T12:12:31.822Z,24.10
2023-04-21T12:15:04.506Z,25.20
2023-04-21T12:17:38.443Z,24.20
2023-04-21T12:20:07.872Z,24.40
2023-04-21T12:22:36.130Z,25.30
2023-04-21T12:25:04.387Z,25.90
2023-04-21T12:27:32.627Z,24.50
2023-04-21T12:30:02.222Z,25.20
2023-04-21T12:32:30.937Z,24.70
2023-04-21T12:35:00.621Z,27.00
2023-04-21T12:37:29.181Z,25.40
2023-04-21T12:39:57.382Z,23.40
2023-04-21T12:42:25.784Z,23.80
2023-04-21T12:44:53.993Z,23.00
2023-04-21T12:47:23.665Z,23.90
2023-04-21T12:49:51.862Z,25.50
2023-04-21T12:52:20.051Z,25.10
2023-04-21T12:54:48.200Z,25.30
2023-04-21T12:57:16.879Z,23.70
2023-04-21T12:59:46.456Z,22.70
2023-04-21T13:02:15.021Z,22.40
2023-04-21T13:04:44.738Z,22.60
2023-04-21T13:07:13.013Z,21.10
2023-04-21T13:09:41.413Z,21.90
2023-04-21T13:12:09.756Z,22.40
2023-04-21T13:14:37.941Z,21.40
2023-04-21T13:17:06.206Z,20.60
2023-04-21T13:19:34.988Z,20.70
2023-04-21T13:22:04.739Z,19.40
2023-04-21T13:24:32.980Z,19.60
2023-04-21T13:27:02.514Z,20.00
2023-04-21T13:29:34.047Z,19.80
2023-04-21T13:32:02.379Z,19.50
2023-04-21T13:34:32.098Z,18.30
2023-04-21T13:37:00.859Z,19.70
2023-04-21T13:39:30.712Z,20.50
2023-04-21T13:41:59.140Z,20.00
2023-04-21T13:44:27.381Z,19.70
2023-04-21T13:46:57.397Z,20.50
2023-04-21T13:49:25.879Z,20.30
2023-04-21T13:51:54.064Z,21.30
2023-04-21T13:54:22.705Z,20.40
2023-04-21T13:56:52.957Z,20.40
2023-04-21T13:59:21.217Z,20.60
2023-04-21T14:01:49.578Z,20.90
2023-04-21T14:04:18.213Z,21.80
2023-04-21T14:06:46.526Z,20.30
2023-04-21T14:09:14.959Z,19.50
2023-04-21T14:11:43.139Z,19.70
2023-04-21T14:14:13.842Z,19.30
2023-04-21T14:16:45.316Z,18.80
2023-04-21T14:19:15.512Z,19.30
2023-04-21T14:21:44.133Z,20.60
2023-04-21T14:24:12.456Z,18.90
2023-04-21T14:26:40.719Z,19.20
2023-04-21T14:29:09.158Z,19.00
2023-04-21T14:31:38.829Z,20.10
2023-04-21T14:34:07.572Z,19.60
2023-04-21T14:36:35.787Z,19.40
2023-04-21T14:39:04.741Z,16.80
2023-04-21T14:41:32.901Z,17.00
2023-04-21T14:44:01.101Z,18.40
2023-04-21T14:46:29.444Z,18.60
2023-04-21T14:48:59.299Z,17.10
2023-04-21T14:51:27.762Z,19.20
2023-04-21T14:53:55.962Z,18.00
2023-04-21T14:56:24.219Z,18.30
2023-04-21T14:58:52.360Z,19.10
2023-04-21T15:01:21.277Z,18.50
2023-04-21T15:03:51.025Z,19.00
2023-04-21T15:06:21.110Z,18.20
2023-04-21T15:08:49.285Z,18.90
2023-04-21T15:11:17.517Z,19.10
2023-04-21T15:13:46.014Z,18.80
2023-04-21T15:16:14.961Z,19.00
2023-04-21T15:18:43.154Z,19.50
2023-04-21T15:21:11.927Z,19.30
2023-04-21T15:23:41.580Z,18.90
2023-04-21T15:26:09.824Z,20.40
2023-04-21T15:28:39.611Z,21.10
2023-04-21T15:31:09.912Z,21.70
2023-04-21T15:33:38.372Z,21.60
2023-04-21T15:36:06.811Z,19.90
2023-04-21T15:38:35.044Z,20.10
2023-04-21T15:41:04.697Z,20.80
2023-04-21T15:43:33.141Z,20.80
2023-04-21T15:46:01.380Z,20.50
2023-04-21T15:48:29.701Z,20.90
2023-04-21T15:50:58.010Z,20.30
2023-04-21T15:53:26.324Z,20.80
2023-04-21T15:55:54.545Z,19.70
2023-04-21T15:58:24.148Z,20.60
2023-04-21T16:00:52.412Z,20.00
2023-04-21T16:03:21.742Z,19.80
2023-04-21T16:05:50.375Z,19.00
2023-04-21T16:08:18.849Z,19.30
2023-04-21T16:10:47.105Z,18.80
2023-04-21T16:13:15.439Z,19.90
2023-04-21T16:15:45.158Z,20.50
2023-04-21T16:18:13.461Z,19.70
2023-04-21T16:20:42.736Z,21.00
2023-04-21T16:23:10.894Z,21.30
2023-04-21T16:25:39.574Z,21.30
2023-04-21T16:28:09.193Z,21.60
2023-04-21T16:30:38.675Z,21.80
2023-04-21T16:33:09.363Z,21.90
2023-04-21T16:35:37.730Z,23.00
2023-04-21T16:38:06.112Z,23.20
2023-04-21T16:40:34.680Z,23.00
2023-04-21T16:43:02.954Z,23.90
2023-04-21T16:45:31.383Z,24.20
2023-04-21T16:47:59.730Z,24.30
2023-04-21T16:50:29.649Z,24.10
2023-04-21T16:52:57.846Z,24.10
2023-04-21T16:55:26.095Z,24.60
2023-04-21T16:57:54.259Z,24.60
2023-04-21T17:00:22.532Z,25.30
2023-04-21T17:02:50.892Z,25.70
2023-04-21T17:05:19.260Z,26.20
2023-04-21T17:07:48.776Z,26.30
2023-04-21T17:10:16.933Z,26.50
2023-04-21T17:12:45.107Z,26.80
2023-04-21T17:15:13.426Z,27.00
2023-04-21T17:17:43.357Z,26.60
2023-04-21T17:20:13.303Z,27.20
2023-04-21T17:22:41.980Z,27.00
2023-04-21T17:25:12.616Z,27.20
2023-04-21T17:27:41.694Z,27.70
2023-04-21T17:30:10.975Z,27.30
2023-04-21T17:32:40.551Z,27.90
2023-04-21T17:35:09.486Z,27.00
2023-04-21T17:37:37.805Z,27.80
2023-04-21T17:40:07.832Z,27.60
2023-04-21T17:42:37.353Z,27.50
2023-04-21T17:45:07.552Z,28.00
2023-04-21T17:47:35.978Z,28.60
2023-04-21T17:50:04.590Z,28.80
2023-04-21T17:52:33.001Z,28.70
2023-04-21T17:55:01.236Z,28.40
2023-04-21T17:57:29.419Z,28.50
2023-04-21T17:59:58.990Z,28.80
2023-04-21T18:02:27.255Z,28.50
2023-04-21T18:04:55.508Z,28.70
2023-04-21T18:07:23.771Z,28.80
2023-04-21T18:09:52.419Z,29.90
2023-04-21T18:12:21.707Z,29.10
2023-04-21T18:14:50.061Z,29.10
2023-04-21T18:17:19.687Z,28.80
2023-04-21T18:19:47.909Z,29.40
2023-04-21T18:22:16.295Z,29.30
2023-04-21T18:24:44.774Z,29.30
2023-04-21T18:27:13.923Z,29.10
2023-04-21T18:29:42.072Z,29.20
2023-04-21T18:32:10.307Z,29.50
2023-04-21T18:34:41.471Z,30.00
2023-04-21T18:37:09.748Z,30.00
2023-04-21T18:39:37.928Z,30.30
2023-04-21T18:42:06.202Z,30.90
2023-04-21T18:44:34.477Z,31.80
2023-04-21T18:47:03.029Z,30.70
2023-04-21T18:49:31.224Z,31.00
2023-04-21T18:52:00.821Z,32.60
2023-04-21T18:54:29.004Z,32.50
2023-04-21T18:56:57.688Z,33.30
2023-04-21T18:59:27.187Z,33.50
2023-04-21T19:01:55.913Z,33.30
2023-04-21T19:04:24.255Z,32.50
2023-04-21T19:06:55.132Z,33.00
2023-04-21T19:09:24.769Z,32.70
2023-04-21T19:11:52.926Z,33.00
2023-04-21T19:14:21.294Z,32.70
2023-04-21T19:16:53.146Z,33.40
2023-04-21T19:19:22.083Z,34.00
2023-04-21T19:21:50.342Z,34.70
2023-04-21T19:24:18.506Z,35.90
2023-04-21T19:26:48.087Z,35.70
2023-04-21T19:29:16.576Z,36.10
2023-04-21T19:31:44.783Z,36.50
2023-04-21T19:34:13.348Z,36.50
2023-04-21T19:36:42.019Z,37.10
2023-04-21T19:39:10.320Z,38.50
2023-04-21T19:41:38.726Z,39.00
2023-04-21T19:44:11.176Z,38.30
2023-04-21T19:46:45.180Z,38.10
2023-04-21T19:49:14.297Z,37.80
2023-04-21T19:51:42.572Z,38.00
2023-04-21T19:54:12.298Z,38.00
2023-04-21T19:56:41.539Z,38.10
2023-04-21T19:59:11.791Z,38.40
2023-04-21T20:01:40.236Z,39.30
2023-04-21T20:04:11.597Z,38.90
2023-04-21T20:06:41.591Z,38.80
2023-04-21T20:09:10.476Z,39.30
2023-04-21T20:11:42.103Z,39.20
2023-04-21T20:14:12.473Z,40.60
2023-04-21T20:16:46.183Z,41.30
2023-04-21T20:19:17.352Z,41.40
2023-04-21T20:21:49.987Z,41.20
2023-04-21T20:24:21.295Z,41.20
2023-04-21T20:26:49.724Z,40.50
2023-04-21T20:29:21.263Z,41.10
2023-04-21T20:31:52.681Z,40.40
2023-04-21T20:34:26.253Z,39.90
2023-04-21T20:36:58.137Z,39.10
2023-04-21T20:39:30.993Z,39.50
2023-04-21T20:42:11.992Z,41.20
2023-04-21T20:44:42.921Z,40.90
2023-04-21T20:47:12.073Z,41.10
2023-04-21T20:49:41.108Z,40.80
2023-04-21T20:52:10.357Z,40.50
2023-04-21T20:54:44.666Z,40.70
2023-04-21T20:57:13.223Z,40.30
2023-04-21T20:59:45.946Z,39.30
2023-04-21T21:02:14.465Z,41.40
2023-04-21T21:04:43.219Z,39.70
2023-04-21T21:07:13.810Z,40.10
2023-04-21T21:09:42.270Z,38.70
2023-04-21T21:12:10.486Z,39.10
2023-04-21T21:14:38.801Z,38.40
2023-04-21T21:17:08.647Z,40.00
2023-04-21T21:19:37.137Z,39.80
2023-04-21T21:22:05.544Z,40.20
2023-04-21T21:24:34.058Z,42.10
2023-04-21T21:27:06.345Z,40.00
2023-04-21T21:29:34.987Z,40.60
2023-04-21T21:32:03.507Z,39.20
2023-04-21T21:34:33.073Z,39.70
2023-04-21T21:37:01.336Z,40.50
2023-04-21T21:39:31.978Z,41.80
2023-04-21T21:42:00.193Z,41.00
2023-04-21T21:44:28.315Z,39.80
2023-04-21T21:46:56.464Z,40.80
2023-04-21T21:49:24.625Z,40.30
2023-04-21T21:51:54.674Z,42.70
2023-04-21T21:54:22.848Z,44.30
2023-04-21T21:56:51.042Z,44.90
2023-04-21T21:59:19.230Z,43.30
2023-04-21T22:01:47.838Z,44.00
2023-04-21T22:04:16.093Z,44.40
2023-04-21T22:06:45.311Z,46.30
2023-04-21T22:09:14.839Z,46.00
2023-04-21T22:11:43.003Z,45.40
2023-04-21T22:14:21.865Z,46.00
2023-04-21T22:16:52.583Z,45.00
2023-04-21T22:19:21.098Z,44.90
2023-04-21T22:21:49.476Z,45.20
2023-04-21T22:24:19.597Z,45.60
2023-04-21T22:26:48.889Z,46.50
2023-04-21T22:29:17.113Z,47.30
2023-04-21T22:31:45.344Z,47.60
2023-04-21T22:34:15.016Z,46.80
2023-04-21T22:36:43.300Z,47.10
2023-04-21T22:39:11.677Z,47.30
2023-04-21T22:41:41.255Z,48.70
2023-04-21T22:44:09.519Z,47.70
2023-04-21T22:46:37.998Z,49.80
2023-04-21T22:49:06.689Z,50.00
2023-04-21T22:51:35.085Z,49.00
2023-04-21T22:54:03.331Z,49.10
2023-04-21T22:56:32.012Z,49.30
2023-04-21T22:59:01.559Z,47.50
2023-04-21T23:01:29.914Z,49.50
2023-04-21T23:03:58.178Z,49.70
2023-04-21T23:06:26.683Z,50.60
2023-04-21T23:08:54.824Z,49.90
2023-04-21T23:11:22.991Z,50.60
2023-04-21T23:13:51.282Z,50.10
2023-04-21T23:16:20.909Z,50.50
2023-04-21T23:18:49.376Z,50.40
2023-04-21T23:21:17.585Z,51.00
2023-04-21T23:23:45.784Z,50.70
2023-04-21T23:26:13.966Z,50.40
2023-04-21T23:28:42.150Z,50.60
2023-04-21T23:31:10.401Z,51.10
2023-04-21T23:33:39.944Z,50.70
2023-04-21T23:36:08.491Z,49.90
2023-04-21T23:38:36.658Z,49.10
2023-04-21T23:41:04.895Z,52.30
2023-04-21T23:43:34.570Z,52.50
2023-04-21T23:46:02.806Z,50.70
2023-04-21T23:48:31.046Z,49.90
2023-04-21T23:51:00.682Z,50.20
2023-04-21T23:53:28.910Z,50.90
2023-04-21T23:55:57.507Z,49.90
2023-04-21T23:58:25.826Z,52.10
